Terminal Aerodrome Forecast
Issued by NWS Twin Cities, MN

Home | Current Version | Previous Version | Text Only | Print | Product List | Glossary Off
Versions: 1 2 3 4 5 6 7 8 9 10 11 12 13 14 15 16 17

000
FTUS43 KMPX 102227 AAA
TAFSTC
TAF AMD
KSTC 102227Z 1022/1118 09005KT 2SM -SN SCT015 OVC025
     FM110900 08008KT 1SM -SN BKN007 OVC015
     FM111500 07006KT 2SM -SN SCT007 OVC015=

USA.gov is the U.S. government's official web portal to all federal, state and local government web resources and services.